createdAt,value
2023-11-17T00:00:14.466Z,5.20
2023-11-17T00:02:43.559Z,6.90
2023-11-17T00:05:12.630Z,7.37
2023-11-17T00:07:41.046Z,5.80
2023-11-17T00:10:12.226Z,7.33
2023-11-17T00:12:43.115Z,6.30
2023-11-17T00:15:13.730Z,8.07
2023-11-17T00:17:42.157Z,8.30
2023-11-17T00:20:11.655Z,8.73
2023-11-17T00:22:39.810Z,5.70
2023-11-17T00:25:09.803Z,6.17
2023-11-17T00:27:39.143Z,6.70
2023-11-17T00:30:14.480Z,5.50
2023-11-17T00:32:42.739Z,6.93
2023-11-17T00:35:11.130Z,7.37
2023-11-17T00:37:40.358Z,9.27
2023-11-17T00:40:11.558Z,7.23
2023-11-17T00:42:40.131Z,6.43
2023-11-17T00:45:11.567Z,7.10
2023-11-17T00:47:39.835Z,6.80
2023-11-17T00:50:13.267Z,8.53
2023-11-17T00:52:43.039Z,6.90
2023-11-17T00:55:14.494Z,7.03
2023-11-17T00:57:43.862Z,6.47
2023-11-17T01:00:15.434Z,6.67
2023-11-17T01:02:43.966Z,7.00
2023-11-17T01:05:12.252Z,5.87
2023-11-17T01:07:41.710Z,6.27
2023-11-17T01:10:10.817Z,6.00
2023-11-17T01:12:39.348Z,5.87
2023-11-17T01:15:09.509Z,6.30
2023-11-17T01:17:39.147Z,7.13
2023-11-17T01:20:11.010Z,7.80
2023-11-17T01:22:39.447Z,10.70
2023-11-17T01:25:09.199Z,7.33
2023-11-17T01:27:37.339Z,7.13
2023-11-17T01:30:06.656Z,7.23
2023-11-17T01:32:34.849Z,7.97
2023-11-17T01:35:04.941Z,8.90
2023-11-17T01:37:33.219Z,8.67
2023-11-17T01:40:01.385Z,7.53
2023-11-17T01:42:34.913Z,7.03
2023-11-17T01:45:03.351Z,7.17
2023-11-17T01:47:32.396Z,6.83
2023-11-17T01:50:00.713Z,6.23
2023-11-17T01:52:30.721Z,8.97
2023-11-17T01:54:59.516Z,6.23
2023-11-17T01:57:31.459Z,7.07
2023-11-17T01:59:59.664Z,7.87
2023-11-17T02:02:29.116Z,7.07
2023-11-17T02:04:57.705Z,7.37
2023-11-17T02:07:40.836Z,7.27
2023-11-17T02:10:22.116Z,7.10
2023-11-17T02:13:01.091Z,8.13
2023-11-17T02:15:37.039Z,10.23
2023-11-17T02:18:11.961Z,7.07
2023-11-17T02:20:42.495Z,6.77
2023-11-17T02:23:17.607Z,7.40
2023-11-17T02:26:16.743Z,7.03
2023-11-17T02:29:00.555Z,8.10
2023-11-17T02:31:34.041Z,7.30
2023-11-17T02:34:05.208Z,7.57
2023-11-17T02:36:34.947Z,7.30
2023-11-17T02:39:14.992Z,7.30
2023-11-17T02:41:49.070Z,7.53
2023-11-17T02:44:18.273Z,7.13
2023-11-17T02:46:47.106Z,8.13
2023-11-17T02:49:30.167Z,7.13
2023-11-17T02:52:04.557Z,7.40
2023-11-17T02:54:35.599Z,7.57
2023-11-17T02:57:05.197Z,6.40
2023-11-17T02:59:36.549Z,7.57
2023-11-17T03:02:07.219Z,8.17
2023-11-17T03:04:38.331Z,7.33
2023-11-17T03:07:06.932Z,6.57
2023-11-17T03:09:35.823Z,6.13
2023-11-17T03:12:07.756Z,6.23
2023-11-17T03:14:36.349Z,7.37
2023-11-17T03:17:06.621Z,6.30
2023-11-17T03:19:35.095Z,6.47
2023-11-17T03:22:04.711Z,5.20
2023-11-17T03:24:35.333Z,5.67
2023-11-17T03:27:04.190Z,6.27
2023-11-17T03:29:33.420Z,6.00
2023-11-17T03:32:02.433Z,6.33
2023-11-17T03:34:33.242Z,5.53
2023-11-17T03:37:03.362Z,7.03
2023-11-17T03:39:32.671Z,6.73
2023-11-17T03:42:03.059Z,7.17
2023-11-17T03:44:31.570Z,6.37
2023-11-17T03:47:00.557Z,6.40
2023-11-17T03:49:29.057Z,6.93
2023-11-17T03:51:58.693Z,7.23
2023-11-17T03:54:26.867Z,6.67
2023-11-17T03:56:57.934Z,6.93
2023-11-17T03:59:26.762Z,7.03
2023-11-17T04:01:55.637Z,6.20
2023-11-17T04:04:26.983Z,6.73
2023-11-17T04:06:58.314Z,6.20
2023-11-17T04:09:28.363Z,7.07
2023-11-17T04:12:02.184Z,7.53
2023-11-17T04:14:39.527Z,6.93
2023-11-17T04:17:08.059Z,7.80
2023-11-17T04:19:36.508Z,7.20
2023-11-17T04:22:05.723Z,8.70
2023-11-17T04:24:35.758Z,7.67
2023-11-17T04:27:03.986Z,7.03
2023-11-17T04:29:32.309Z,6.67
2023-11-17T04:32:00.623Z,9.43
2023-11-17T04:34:28.789Z,7.03
2023-11-17T04:36:57.227Z,6.60
2023-11-17T04:39:26.151Z,6.83
2023-11-17T04:41:55.636Z,6.37
2023-11-17T04:44:23.778Z,6.57
2023-11-17T04:46:51.952Z,7.33
2023-11-17T04:49:20.273Z,6.67
2023-11-17T04:51:49.027Z,6.63
2023-11-17T04:54:17.423Z,6.60
2023-11-17T04:56:53.467Z,6.77
2023-11-17T04:59:22.009Z,6.87
2023-11-17T05:01:50.659Z,7.53
2023-11-17T05:04:18.888Z,6.43
2023-11-17T05:06:47.708Z,6.93
2023-11-17T05:09:16.666Z,6.40
2023-11-17T05:11:44.889Z,6.07
2023-11-17T05:14:14.559Z,5.03
2023-11-17T05:16:44.235Z,5.43
2023-11-17T05:19:14.859Z,4.80
2023-11-17T05:21:43.220Z,6.00
2023-11-17T05:24:11.560Z,4.87
2023-11-17T05:26:39.738Z,4.80
2023-11-17T05:29:08.767Z,4.53
2023-11-17T05:31:38.321Z,3.97
2023-11-17T05:34:06.628Z,5.07
2023-11-17T05:36:40.426Z,4.37
2023-11-17T05:39:10.213Z,4.73
2023-11-17T05:41:39.845Z,5.03
2023-11-17T05:44:09.732Z,6.10
2023-11-17T05:46:39.927Z,5.40
2023-11-17T05:49:08.585Z,5.77
2023-11-17T05:51:36.757Z,5.40
2023-11-17T05:54:05.214Z,5.87
2023-11-17T05:56:33.574Z,6.07
2023-11-17T05:59:01.927Z,5.63
2023-11-17T06:01:30.582Z,5.70
2023-11-17T06:04:00.327Z,5.43
2023-11-17T06:06:28.633Z,6.07
2023-11-17T06:08:57.562Z,5.90
2023-11-17T06:11:29.005Z,5.40
2023-11-17T06:13:57.680Z,5.43
2023-11-17T06:16:26.393Z,5.27
2023-11-17T06:18:56.038Z,5.80
2023-11-17T06:21:25.584Z,5.17
2023-11-17T06:23:54.183Z,5.37
2023-11-17T06:26:23.144Z,5.03
2023-11-17T06:28:51.357Z,6.60
2023-11-17T06:31:19.664Z,4.97
2023-11-17T06:33:47.892Z,5.33
2023-11-17T06:36:16.152Z,5.60
2023-11-17T06:38:46.747Z,5.97
2023-11-17T06:41:15.667Z,8.67
2023-11-17T06:43:44.353Z,4.90
2023-11-17T06:46:12.942Z,5.50
2023-11-17T06:48:41.193Z,5.70
2023-11-17T06:51:09.405Z,5.37
2023-11-17T06:53:37.624Z,5.87
2023-11-17T06:56:08.258Z,5.00
2023-11-17T06:58:36.503Z,5.83
2023-11-17T07:01:06.271Z,4.80
2023-11-17T07:03:34.743Z,5.50
2023-11-17T07:06:02.950Z,6.03
2023-11-17T07:08:31.064Z,5.27
2023-11-17T07:11:00.116Z,5.43
2023-11-17T07:13:30.133Z,4.90
2023-11-17T07:15:58.328Z,5.00
2023-11-17T07:18:26.902Z,5.23
2023-11-17T07:20:55.660Z,6.33
2023-11-17T07:23:23.757Z,5.07
2023-11-17T07:25:52.038Z,4.93
2023-11-17T07:28:22.489Z,5.30
2023-11-17T07:30:52.736Z,6.63
2023-11-17T07:33:20.865Z,5.53
2023-11-17T07:35:48.952Z,4.77
2023-11-17T07:38:17.062Z,5.50
2023-11-17T07:40:45.299Z,4.80
2023-11-17T07:43:13.548Z,5.57
2023-11-17T07:45:41.724Z,4.80
2023-11-17T07:48:12.932Z,4.60
2023-11-17T07:50:42.892Z,4.40
2023-11-17T07:53:11.065Z,4.40
2023-11-17T07:55:40.103Z,4.80
2023-11-17T07:58:08.279Z,4.50
2023-11-17T08:00:36.418Z,6.07
2023-11-17T08:03:05.827Z,4.90
2023-11-17T08:05:35.390Z,4.90
2023-11-17T08:08:03.568Z,6.30
2023-11-17T08:10:31.746Z,4.80
2023-11-17T08:13:00.527Z,4.17
2023-11-17T08:15:30.133Z,5.37
2023-11-17T08:17:58.358Z,4.27
2023-11-17T08:20:26.463Z,4.57
2023-11-17T08:22:56.001Z,4.47
2023-11-17T08:25:27.794Z,4.33
2023-11-17T08:27:55.982Z,3.77
2023-11-17T08:30:24.317Z,3.83
2023-11-17T08:32:52.566Z,4.47
2023-11-17T08:35:22.211Z,5.60
2023-11-17T08:37:51.256Z,4.67
2023-11-17T08:40:21.398Z,3.87
2023-11-17T08:42:50.295Z,3.93
2023-11-17T08:45:19.784Z,4.67
2023-11-17T08:47:50.738Z,4.43
2023-11-17T08:50:19.144Z,3.30
2023-11-17T08:52:48.945Z,3.63
2023-11-17T08:55:18.409Z,3.13
2023-11-17T08:57:49.623Z,3.27
2023-11-17T09:00:26.107Z,3.10
2023-11-17T09:02:55.553Z,4.00
2023-11-17T09:05:25.469Z,5.07
2023-11-17T09:07:53.908Z,4.40
2023-11-17T09:10:27.524Z,3.57
2023-11-17T09:12:57.430Z,2.90
2023-11-17T09:15:27.057Z,2.70
2023-11-17T09:17:56.383Z,3.17
2023-11-17T09:20:27.381Z,3.53
2023-11-17T09:22:56.392Z,3.80
2023-11-17T09:25:25.792Z,4.03
2023-11-17T09:27:57.988Z,3.83
2023-11-17T09:30:31.709Z,3.23
2023-11-17T09:33:04.188Z,3.20
2023-11-17T09:35:33.555Z,3.83
2023-11-17T09:38:05.443Z,2.90
2023-11-17T09:40:35.883Z,3.67
2023-11-17T09:43:17.026Z,3.17
2023-11-17T09:45:46.541Z,2.77
2023-11-17T09:48:17.508Z,5.27
2023-11-17T09:50:47.445Z,2.77
2023-11-17T09:53:18.257Z,2.83
2023-11-17T09:55:50.233Z,2.50
2023-11-17T09:58:22.197Z,2.80
2023-11-17T10:00:52.332Z,2.80
2023-11-17T10:03:23.748Z,2.80
2023-11-17T10:05:55.278Z,2.93
2023-11-17T10:08:25.556Z,5.57
2023-11-17T10:10:54.662Z,4.57
2023-11-17T10:13:26.966Z,4.43
2023-11-17T10:15:59.375Z,2.80
2023-11-17T10:18:30.497Z,2.57
2023-11-17T10:20:59.688Z,2.83
2023-11-17T10:23:28.642Z,3.17
2023-11-17T10:25:57.917Z,4.17
2023-11-17T10:28:28.865Z,2.50
2023-11-17T10:31:06.299Z,3.87
2023-11-17T10:33:41.462Z,3.10
2023-11-17T10:36:13.055Z,2.53
2023-11-17T10:38:46.844Z,3.00
2023-11-17T10:41:20.240Z,3.70
2023-11-17T10:43:52.977Z,3.80
2023-11-17T10:46:25.232Z,3.00
2023-11-17T10:48:53.944Z,2.53
2023-11-17T10:51:22.934Z,3.30
2023-11-17T10:54:05.920Z,3.00
2023-11-17T10:56:35.655Z,2.50
2023-11-17T10:59:09.823Z,2.80
2023-11-17T11:01:40.416Z,2.10
2023-11-17T11:04:10.790Z,2.83
2023-11-17T11:06:41.861Z,3.47
2023-11-17T11:09:10.496Z,3.00
2023-11-17T11:11:38.921Z,3.60
2023-11-17T11:14:08.841Z,3.00
2023-11-17T11:16:38.297Z,2.90
2023-11-17T11:19:06.797Z,3.33
2023-11-17T11:21:35.558Z,2.70
2023-11-17T11:24:06.300Z,4.00
2023-11-17T11:26:36.594Z,2.83
2023-11-17T11:29:07.147Z,3.37
2023-11-17T11:31:38.790Z,3.00
2023-11-17T11:34:07.733Z,2.57
2023-11-17T11:36:36.182Z,2.90
2023-11-17T11:39:05.665Z,2.73
2023-11-17T11:41:35.245Z,3.03
2023-11-17T11:44:04.600Z,2.87
2023-11-17T11:46:33.640Z,2.90
2023-11-17T11:49:12.879Z,2.83
2023-11-17T11:51:50.230Z,2.77
2023-11-17T11:54:19.020Z,3.70
2023-11-17T11:56:48.489Z,2.13
2023-11-17T11:59:17.310Z,1.63
2023-11-17T12:01:48.314Z,1.47
2023-11-17T12:04:21.319Z,1.47
2023-11-17T12:06:52.105Z,1.20
2023-11-17T12:09:22.574Z,2.67
2023-11-17T12:11:52.687Z,1.47
2023-11-17T12:14:30.256Z,1.20
2023-11-17T12:16:59.884Z,1.83
2023-11-17T12:19:32.985Z,1.57
2023-11-17T12:22:02.145Z,1.73
2023-11-17T12:24:36.052Z,2.03
2023-11-17T12:27:07.427Z,1.20
2023-11-17T12:29:37.917Z,1.40
2023-11-17T12:32:07.769Z,1.73
2023-11-17T12:34:45.768Z,2.73
2023-11-17T12:37:15.666Z,1.27
2023-11-17T12:39:45.983Z,2.73
2023-11-17T12:42:18.450Z,2.80
2023-11-17T12:44:47.137Z,1.30
2023-11-17T12:47:25.399Z,1.40
2023-11-17T12:50:00.326Z,1.43
2023-11-17T12:52:28.635Z,1.60
2023-11-17T12:55:08.034Z,1.47
2023-11-17T12:57:37.203Z,1.20
2023-11-17T13:00:14.926Z,2.03
2023-11-17T13:02:43.728Z,2.00
2023-11-17T13:05:15.983Z,1.10
2023-11-17T13:07:45.676Z,1.87
2023-11-17T13:10:14.221Z,1.53
2023-11-17T13:12:46.535Z,1.13
2023-11-17T13:15:15.742Z,1.73
2023-11-17T13:17:45.258Z,2.40
2023-11-17T13:20:21.542Z,1.60
2023-11-17T13:22:52.313Z,1.50
2023-11-17T13:25:22.127Z,2.37
2023-11-17T13:27:50.881Z,3.57
2023-11-17T13:30:19.438Z,5.47
2023-11-17T13:32:57.851Z,1.03
2023-11-17T13:35:29.954Z,1.13
2023-11-17T13:38:02.061Z,1.67
2023-11-17T13:40:34.831Z,1.20
2023-11-17T13:43:10.650Z,2.00
2023-11-17T13:45:40.112Z,1.40
2023-11-17T13:48:11.986Z,1.40
2023-11-17T13:50:52.420Z,1.30
2023-11-17T13:53:23.164Z,1.47
2023-11-17T13:55:54.143Z,1.80
2023-11-17T13:58:22.482Z,2.10
2023-11-17T14:00:50.656Z,1.20
2023-11-17T14:03:18.884Z,1.00
2023-11-17T14:05:48.515Z,0.90
2023-11-17T14:08:18.162Z,1.77
2023-11-17T14:10:46.500Z,1.33
2023-11-17T14:13:15.134Z,2.37
2023-11-17T14:15:51.590Z,1.30
2023-11-17T14:18:23.101Z,1.13
2023-11-17T14:20:53.044Z,1.10
2023-11-17T14:23:21.239Z,2.30
2023-11-17T14:25:49.590Z,3.20
2023-11-17T14:28:18.486Z,2.40
2023-11-17T14:30:46.993Z,3.60
2023-11-17T14:33:15.755Z,3.57
2023-11-17T14:35:44.155Z,3.73
2023-11-17T14:38:14.165Z,4.03
2023-11-17T14:40:42.430Z,2.30
2023-11-17T14:43:12.490Z,1.87
2023-11-17T14:45:41.566Z,2.17
2023-11-17T14:48:10.453Z,2.27
2023-11-17T14:50:38.859Z,2.27
2023-11-17T14:53:07.700Z,1.93
2023-11-17T14:55:37.747Z,2.03
2023-11-17T14:58:09.588Z,2.13
2023-11-17T15:00:40.586Z,3.30
2023-11-17T15:03:09.445Z,1.90
2023-11-17T15:05:39.368Z,1.20
2023-11-17T15:08:10.662Z,1.70
2023-11-17T15:10:41.548Z,1.37
2023-11-17T15:13:10.015Z,1.30
2023-11-17T15:15:42.913Z,1.77
2023-11-17T15:18:13.607Z,2.30
2023-11-17T15:20:42.163Z,2.10
2023-11-17T15:23:10.581Z,1.57
2023-11-17T15:25:41.216Z,1.80
2023-11-17T15:28:14.024Z,1.47
2023-11-17T15:30:47.894Z,1.43
2023-11-17T15:33:17.238Z,1.37
2023-11-17T15:35:46.163Z,3.27
2023-11-17T15:38:14.516Z,1.60
2023-11-17T15:40:44.319Z,1.50
2023-11-17T15:43:12.620Z,2.77
2023-11-17T15:45:42.672Z,2.27
2023-11-17T15:48:12.511Z,2.00
2023-11-17T15:50:40.894Z,2.10
2023-11-17T15:53:09.011Z,2.17
2023-11-17T15:55:37.759Z,2.67
2023-11-17T15:58:09.051Z,2.60
2023-11-17T16:00:39.493Z,2.30
2023-11-17T16:03:08.337Z,4.13
2023-11-17T16:05:36.591Z,1.80
2023-11-17T16:08:04.797Z,2.37
2023-11-17T16:10:34.521Z,2.60
2023-11-17T16:13:05.491Z,3.70
2023-11-17T16:15:35.133Z,2.20
2023-11-17T16:18:03.374Z,2.67
2023-11-17T16:20:32.719Z,3.07
2023-11-17T16:23:01.456Z,2.73
2023-11-17T16:25:30.746Z,3.70
2023-11-17T16:28:00.245Z,2.40
2023-11-17T16:30:28.703Z,2.90
2023-11-17T16:32:58.473Z,2.30
2023-11-17T16:35:28.622Z,4.60
2023-11-17T16:37:57.282Z,2.70
2023-11-17T16:40:28.207Z,2.23
2023-11-17T16:43:02.905Z,3.23
2023-11-17T16:45:33.185Z,2.90
2023-11-17T16:48:05.072Z,9.00
2023-11-17T16:50:39.900Z,2.27
2023-11-17T16:53:10.214Z,3.03
2023-11-17T16:55:38.812Z,3.30
2023-11-17T16:58:09.925Z,3.43
2023-11-17T17:00:40.603Z,3.57
2023-11-17T17:03:13.084Z,3.87
2023-11-17T17:05:41.889Z,3.93
2023-11-17T17:08:11.374Z,2.77
2023-11-17T17:10:41.665Z,3.27
2023-11-17T17:13:09.958Z,3.37
2023-11-17T17:15:39.110Z,3.67
2023-11-17T17:18:13.546Z,5.03
2023-11-17T17:20:42.428Z,3.23
2023-11-17T17:23:12.753Z,4.47
2023-11-17T17:25:42.127Z,4.13
2023-11-17T17:28:12.710Z,4.40
2023-11-17T17:30:42.266Z,3.57
2023-11-17T17:33:12.746Z,3.20
2023-11-17T17:35:44.004Z,4.13
2023-11-17T17:38:13.907Z,4.20
2023-11-17T17:40:43.822Z,4.40
2023-11-17T17:43:13.702Z,3.27
2023-11-17T17:45:44.715Z,3.27
2023-11-17T17:48:15.001Z,3.43
2023-11-17T17:50:43.428Z,4.30
2023-11-17T17:53:12.440Z,4.67
2023-11-17T17:55:41.597Z,4.10
2023-11-17T17:58:11.002Z,4.27
2023-11-17T18:00:39.976Z,3.60
2023-11-17T18:03:08.422Z,5.40
2023-11-17T18:05:38.089Z,5.00
2023-11-17T18:08:05.721Z,4.73
2023-11-17T18:10:33.919Z,3.80
2023-11-17T18:13:02.316Z,4.17
2023-11-17T18:15:30.535Z,5.07
2023-11-17T18:17:59.377Z,4.90
2023-11-17T18:20:29.516Z,5.23
2023-11-17T18:23:00.034Z,6.03
2023-11-17T18:25:28.652Z,4.60
2023-11-17T18:27:56.907Z,5.53
2023-11-17T18:30:27.362Z,5.20
2023-11-17T18:32:55.772Z,4.87
2023-11-17T18:35:24.924Z,4.57
2023-11-17T18:37:54.515Z,4.87
2023-11-17T18:40:27.069Z,5.67
2023-11-17T18:42:58.856Z,4.20
2023-11-17T18:45:29.272Z,5.37
2023-11-17T18:47:59.131Z,6.27
2023-11-17T18:50:28.876Z,4.73
2023-11-17T18:52:57.363Z,5.80
2023-11-17T18:55:27.323Z,4.80
2023-11-17T18:57:55.577Z,4.93
2023-11-17T19:00:23.916Z,6.10
2023-11-17T19:02:53.652Z,4.27
2023-11-17T19:05:24.438Z,4.67
2023-11-17T19:07:55.964Z,4.37
2023-11-17T19:10:25.804Z,4.40
2023-11-17T19:12:56.717Z,3.40
2023-11-17T19:15:25.021Z,4.80
2023-11-17T19:17:54.687Z,4.67
2023-11-17T19:20:24.656Z,4.03
2023-11-17T19:22:52.930Z,3.60
2023-11-17T19:25:21.821Z,3.90
2023-11-17T19:27:49.990Z,5.03
2023-11-17T19:30:19.600Z,4.83
2023-11-17T19:32:50.716Z,5.03
2023-11-17T19:35:20.923Z,4.67
2023-11-17T19:37:49.452Z,4.53
2023-11-17T19:40:17.921Z,4.10
2023-11-17T19:42:46.825Z,4.20
2023-11-17T19:45:18.286Z,4.00
2023-11-17T19:47:50.665Z,4.20
2023-11-17T19:50:20.097Z,4.40
2023-11-17T19:52:50.636Z,7.03
2023-11-17T19:55:21.379Z,5.60
2023-11-17T19:57:50.112Z,7.63
2023-11-17T20:00:24.582Z,7.63
2023-11-17T20:02:56.413Z,6.13
2023-11-17T20:05:29.001Z,7.50
2023-11-17T20:07:57.817Z,6.43
2023-11-17T20:10:30.658Z,6.60
2023-11-17T20:12:58.845Z,7.47
2023-11-17T20:15:26.962Z,6.50
2023-11-17T20:17:57.648Z,5.90
2023-11-17T20:20:27.612Z,5.50
2023-11-17T20:22:57.112Z,6.97
2023-11-17T20:25:26.370Z,6.20
2023-11-17T20:27:56.380Z,5.80
2023-11-17T20:30:26.037Z,6.03
2023-11-17T20:32:58.296Z,6.27
2023-11-17T20:35:27.009Z,6.90
2023-11-17T20:37:55.438Z,6.53
2023-11-17T20:40:25.572Z,5.40
2023-11-17T20:42:54.086Z,6.23
2023-11-17T20:45:24.548Z,5.93
2023-11-17T20:47:53.050Z,6.20
2023-11-17T20:50:25.567Z,7.17
2023-11-17T20:52:54.407Z,7.23
2023-11-17T20:55:23.767Z,6.50
2023-11-17T20:57:56.485Z,5.70
2023-11-17T21:00:25.838Z,6.30
2023-11-17T21:02:57.870Z,4.80
2023-11-17T21:05:29.493Z,4.50
2023-11-17T21:07:58.099Z,4.20
2023-11-17T21:10:31.354Z,4.40
2023-11-17T21:13:00.061Z,5.27
2023-11-17T21:15:28.662Z,4.77
2023-11-17T21:17:57.068Z,4.40
2023-11-17T21:20:25.369Z,5.43
2023-11-17T21:22:54.900Z,4.80
2023-11-17T21:25:24.038Z,5.20
2023-11-17T21:27:54.369Z,5.23
2023-11-17T21:30:24.767Z,4.40
2023-11-17T21:32:55.078Z,4.87
2023-11-17T21:35:23.998Z,5.30
2023-11-17T21:37:55.955Z,5.43
2023-11-17T21:40:25.820Z,6.67
2023-11-17T21:42:54.985Z,5.87
2023-11-17T21:45:25.656Z,7.50
2023-11-17T21:47:57.076Z,6.20
2023-11-17T21:50:26.745Z,6.63
2023-11-17T21:52:56.550Z,5.93
2023-11-17T21:55:24.999Z,6.20
2023-11-17T21:57:55.480Z,5.63
2023-11-17T22:00:28.302Z,5.70
2023-11-17T22:02:56.955Z,5.37
2023-11-17T22:05:25.440Z,5.87
2023-11-17T22:07:55.376Z,4.70
2023-11-17T22:10:23.568Z,6.33
2023-11-17T22:12:51.877Z,6.97
2023-11-17T22:15:21.448Z,4.90
2023-11-17T22:17:51.325Z,4.17
2023-11-17T22:20:21.733Z,4.93
2023-11-17T22:22:53.465Z,3.63
2023-11-17T22:25:24.061Z,4.60
2023-11-17T22:27:55.787Z,3.57
2023-11-17T22:30:26.841Z,3.33
2023-11-17T22:32:57.504Z,3.70
2023-11-17T22:35:27.969Z,4.53
2023-11-17T22:37:56.704Z,3.17
2023-11-17T22:40:26.426Z,3.13
2023-11-17T22:42:54.960Z,3.23
2023-11-17T22:45:24.048Z,3.40
2023-11-17T22:47:53.326Z,4.70
2023-11-17T22:50:22.873Z,3.50
2023-11-17T22:52:52.739Z,3.30
2023-11-17T22:55:22.186Z,3.50
2023-11-17T22:57:52.106Z,3.30
2023-11-17T23:00:42.254Z,3.87
2023-11-17T23:03:11.292Z,3.83
2023-11-17T23:05:43.243Z,5.67
2023-11-17T23:08:13.056Z,3.47
2023-11-17T23:10:42.132Z,3.90
2023-11-17T23:13:12.869Z,3.27
2023-11-17T23:15:42.019Z,4.47
2023-11-17T23:18:10.873Z,4.00
2023-11-17T23:20:39.402Z,7.73
2023-11-17T23:23:07.960Z,3.57
2023-11-17T23:25:38.086Z,5.03
2023-11-17T23:28:07.257Z,3.47
2023-11-17T23:30:37.200Z,4.53
2023-11-17T23:33:10.776Z,4.97
2023-11-17T23:35:39.001Z,3.37
2023-11-17T23:38:09.073Z,3.20
2023-11-17T23:40:37.581Z,3.63
2023-11-17T23:43:05.940Z,4.33
2023-11-17T23:45:39.656Z,3.70
2023-11-17T23:48:10.708Z,4.07
2023-11-17T23:50:41.518Z,4.00
2023-11-17T23:53:09.880Z,4.60
2023-11-17T23:55:38.312Z,3.63
2023-11-17T23:58:07.042Z,4.70
